Time;durP1;ratioP1;P1;durP2;ratioP2;P2;SDS_P1;SDS_P2;PMS_P1;PMS_P2;Temp;Humidity;BMP_temperature;BMP_pressure;BME280_temperature;BME280_humidity;BME280_pressure;Samples;Min_cycle;Max_cycle;Signal;HPM_P1;HPM_P2
2022/05/20 00:01:08;;;;;;;16.90;14.73;;;19.50;99.90;;;;;;4988130;28;20536;-76
2022/05/20 00:03:35;;;;;;;16.35;14.75;;;19.40;99.90;;;;;;4988019;28;20151;-76
2022/05/20 00:06:01;;;;;;;18.77;16.77;;;19.30;99.90;;;;;;5022336;28;20037;-77
2022/05/20 00:08:28;;;;;;;19.02;15.77;;;19.40;99.90;;;;;;5003641;28;20124;-77
2022/05/20 00:10:54;;;;;;;17.67;15.27;;;19.40;99.90;;;;;;5025755;23;20600;-75
2022/05/20 00:13:23;;;;;;;17.38;15.57;;;19.30;99.90;;;;;;5013920;28;20101;-75
2022/05/20 00:15:49;;;;;;;17.90;16.08;;;19.20;99.90;;;;;;4999393;28;20021;-76
2022/05/20 00:18:14;;;;;;;16.92;14.73;;;19.10;99.90;;;;;;5015832;28;20109;-75
2022/05/20 00:20:40;;;;;;;21.15;16.48;;;19.00;99.90;;;;;;5013739;28;20477;-75
2022/05/20 00:23:06;;;;;;;19.73;16.65;;;19.00;99.90;;;;;;5011936;28;20157;-75
2022/05/20 00:25:47;;;;;;;21.55;16.77;;;18.90;99.90;;;;;;5011235;28;20693;-75
2022/05/20 00:28:21;;;;;;;17.65;15.43;;;18.90;99.90;;;;;;5017797;28;20064;-76
2022/05/20 00:30:53;;;;;;;20.58;17.13;;;18.90;99.90;;;;;;5009344;28;20145;-77
2022/05/20 00:33:19;;;;;;;20.17;16.58;;;18.90;99.90;;;;;;5012335;28;20018;-76
2022/05/20 00:35:45;;;;;;;21.23;18.40;;;18.90;99.90;;;;;;5015769;28;20504;-75
2022/05/20 00:38:12;;;;;;;21.33;18.25;;;18.90;99.90;;;;;;5015894;28;20099;-75
2022/05/20 00:40:38;;;;;;;23.52;18.58;;;18.90;99.90;;;;;;5012585;28;20044;-75
2022/05/20 00:43:10;;;;;;;22.98;20.58;;;18.80;99.90;;;;;;5015150;28;20037;-75
2022/05/20 00:45:36;;;;;;;23.60;20.73;;;18.80;99.90;;;;;;5017893;28;20026;-76
2022/05/20 00:48:01;;;;;;;24.80;21.35;;;18.80;99.90;;;;;;5014878;28;20076;-75
2022/05/20 00:50:27;;;;;;;26.30;18.90;;;18.70;99.90;;;;;;5013731;28;20112;-74
2022/05/20 00:52:53;;;;;;;24.27;20.77;;;18.70;99.90;;;;;;5014281;28;20037;-74
2022/05/20 00:55:22;;;;;;;23.40;20.85;;;18.70;99.90;;;;;;5014802;28;20029;-75
2022/05/20 00:57:53;;;;;;;27.02;20.58;;;18.60;99.90;;;;;;5015741;28;20021;-74
2022/05/20 01:00:26;;;;;;;30.15;23.65;;;18.70;99.90;;;;;;5012103;28;20042;-75
2022/05/20 01:02:56;;;;;;;28.67;22.63;;;18.60;99.90;;;;;;5016866;28;20088;-75
2022/05/20 01:05:31;;;;;;;26.60;21.45;;;18.60;99.90;;;;;;5016729;28;20029;-75
2022/05/20 01:07:57;;;;;;;32.13;24.27;;;18.60;99.90;;;;;;5017656;28;21193;-75
2022/05/20 01:10:23;;;;;;;30.95;25.08;;;18.60;99.90;;;;;;4996568;28;20506;-75
2022/05/20 01:12:51;;;;;;;31.25;23.63;;;18.60;99.90;;;;;;4994427;28;20026;-75
2022/05/20 01:15:17;;;;;;;29.73;22.63;;;18.40;99.90;;;;;;4996798;28;20108;-77
2022/05/20 01:17:45;;;;;;;30.85;22.88;;;18.30;99.90;;;;;;5014330;28;20038;-74
2022/05/20 01:20:16;;;;;;;30.85;23.40;;;18.20;99.90;;;;;;4981258;28;20030;-75
2022/05/20 01:23:09;;;;;;;29.55;22.50;;;18.20;99.90;;;;;;4997458;28;20026;-75
2022/05/20 01:25:36;;;;;;;32.88;24.13;;;18.10;99.90;;;;;;4979263;28;20030;-77
2022/05/20 01:28:02;;;;;;;30.45;24.17;;;18.10;99.90;;;;;;5000858;28;20566;-76
2022/05/20 01:30:30;;;;;;;29.08;22.58;;;18.10;99.90;;;;;;4995254;28;20116;-76
2022/05/20 01:32:56;;;;;;;30.13;22.13;;;18.10;99.90;;;;;;5014226;28;21746;-76
2022/05/20 01:35:39;;;;;;;31.33;21.33;;;18.10;99.90;;;;;;4981646;28;20128;-77
2022/05/20 01:38:07;;;;;;;28.83;21.27;;;18.00;99.90;;;;;;4997614;28;20042;-76
2022/05/20 01:40:44;;;;;;;29.77;21.10;;;18.00;99.90;;;;;;5014740;28;20021;-76
2022/05/20 01:43:29;;;;;;;29.20;21.33;;;17.90;99.90;;;;;;5011763;28;20029;-76
2022/05/20 01:46:20;;;;;;;29.17;22.67;;;17.90;99.90;;;;;;4994349;28;20030;-75
2022/05/20 01:49:07;;;;;;;27.42;21.58;;;17.90;99.90;;;;;;5015765;28;20060;-76
2022/05/20 01:51:57;;;;;;;33.85;24.70;;;17.80;99.90;;;;;;4998500;28;20168;-77
2022/05/20 01:54:27;;;;;;;29.33;23.02;;;17.80;99.90;;;;;;4998966;28;20130;-76
2022/05/20 01:57:02;;;;;;;33.08;24.63;;;17.70;99.90;;;;;;5014227;28;20068;-76
2022/05/20 01:59:34;;;;;;;29.98;23.15;;;17.60;99.90;;;;;;4997968;28;20029;-76
2022/05/20 02:02:44;;;;;;;28.92;20.02;;;17.50;99.90;;;;;;5013079;28;20032;-76
2022/05/20 02:05:38;;;;;;;34.90;19.85;;;17.40;99.90;;;;;;4929514;28;20030;-76
2022/05/20 02:08:45;;;;;;;23.50;17.77;;;17.40;99.90;;;;;;4942116;28;20035;-76
2022/05/20 02:11:19;;;;;;;22.27;15.77;;;17.40;99.90;;;;;;4941569;28;20066;-76
2022/05/20 02:14:00;;;;;;;18.98;15.52;;;17.30;99.90;;;;;;4953580;28;20050;-76
2022/05/20 02:16:33;;;;;;;16.03;12.60;;;17.20;99.90;;;;;;4991191;28;20508;-76
2022/05/20 02:19:22;;;;;;;19.38;12.43;;;17.20;99.90;;;;;;5014385;28;20378;-76
2022/05/20 02:21:54;;;;;;;16.25;12.05;;;17.20;99.90;;;;;;5011913;28;20457;-76
2022/05/20 02:24:23;;;;;;;16.13;11.00;;;17.10;99.90;;;;;;5011460;28;20056;-77
2022/05/20 02:26:56;;;;;;;16.60;11.60;;;17.10;99.90;;;;;;5012850;28;20025;-77
2022/05/20 02:29:27;;;;;;;12.88;10.23;;;17.00;99.90;;;;;;5012519;28;20029;-76
2022/05/20 02:32:07;;;;;;;14.15;10.88;;;17.00;99.90;;;;;;5011777;28;20036;-77
2022/05/20 02:34:34;;;;;;;16.85;12.88;;;17.00;99.90;;;;;;4995389;28;20401;-78
2022/05/20 02:37:20;;;;;;;16.60;11.43;;;17.00;99.90;;;;;;5012644;28;20026;-77
2022/05/20 02:39:46;;;;;;;17.08;11.02;;;16.90;99.90;;;;;;5010533;28;20042;-76
2022/05/20 02:42:12;;;;;;;12.02;9.05;;;16.90;99.90;;;;;;5012085;28;20052;-76
2022/05/20 02:44:39;;;;;;;12.43;8.10;;;16.90;99.90;;;;;;5015109;28;20046;-76
2022/05/20 02:47:05;;;;;;;10.68;7.45;;;16.90;99.90;;;;;;5011635;28;20022;-75
2022/05/20 02:49:31;;;;;;;9.98;7.25;;;16.80;99.90;;;;;;5015823;28;20029;-76
2022/05/20 02:51:56;;;;;;;14.55;6.90;;;16.70;99.90;;;;;;5007327;28;21825;-76
2022/05/20 02:54:22;;;;;;;10.38;6.22;;;16.70;99.90;;;;;;5012850;28;20038;-77
2022/05/20 02:56:48;;;;;;;7.32;5.53;;;16.60;99.90;;;;;;5013378;28;20057;-77
2022/05/20 03:04:45;;;;;;;8.57;5.65;;;16.50;99.90;;;;;;5016185;28;20049;-75
2022/05/20 03:07:13;;;;;;;9.73;6.43;;;16.50;99.90;;;;;;5010308;28;20562;-75
2022/05/20 03:09:38;;;;;;;9.88;5.63;;;16.40;99.90;;;;;;5014271;28;20029;-75
2022/05/20 03:12:05;;;;;;;8.68;5.50;;;16.30;99.90;;;;;;5018926;28;20485;-75
2022/05/20 03:14:32;;;;;;;7.47;5.47;;;16.20;99.90;;;;;;4987560;28;20040;-76
2022/05/20 03:17:02;;;;;;;9.82;5.70;;;16.30;99.90;;;;;;4995536;28;20030;-74
2022/05/20 03:19:31;;;;;;;9.63;6.00;;;16.20;99.90;;;;;;5016889;28;20481;-75
2022/05/20 03:22:01;;;;;;;9.52;5.63;;;16.20;99.90;;;;;;4998769;28;21329;-76
2022/05/20 03:24:28;;;;;;;7.22;5.50;;;16.10;99.90;;;;;;5001326;28;20070;-76
2022/05/20 03:26:54;;;;;;;8.48;5.20;;;16.10;99.90;;;;;;5017322;28;20029;-76
2022/05/20 03:29:20;;;;;;;6.65;4.38;;;16.10;99.90;;;;;;5004144;28;20112;-77
2022/05/20 03:31:47;;;;;;;10.65;4.80;;;16.10;99.90;;;;;;5018577;28;20589;-76
2022/05/20 03:34:13;;;;;;;7.18;4.20;;;16.10;99.90;;;;;;5001946;28;20092;-76
2022/05/20 03:36:45;;;;;;;10.18;4.97;;;16.00;99.90;;;;;;5006133;28;20106;-76
2022/05/20 03:39:13;;;;;;;9.05;4.50;;;16.00;99.90;;;;;;5021808;28;20398;-76
2022/05/20 03:41:41;;;;;;;8.65;4.97;;;16.00;99.90;;;;;;5001945;28;20026;-76
2022/05/20 03:44:09;;;;;;;7.30;4.47;;;15.90;99.90;;;;;;5000868;28;20040;-76
2022/05/20 03:46:56;;;;;;;6.45;4.93;;;16.00;99.90;;;;;;5000052;28;20109;-76
2022/05/20 03:49:25;;;;;;;8.20;4.90;;;16.00;99.90;;;;;;5010410;28;20034;-76
2022/05/20 03:51:52;;;;;;;7.78;4.85;;;16.00;99.90;;;;;;4997134;28;20046;-76
2022/05/20 03:54:20;;;;;;;9.63;4.68;;;16.00;99.90;;;;;;5001833;28;20037;-76
2022/05/20 03:56:46;;;;;;;12.40;4.82;;;15.90;99.90;;;;;;4983660;28;20025;-76
2022/05/20 03:59:12;;;;;;;8.32;5.07;;;15.90;99.90;;;;;;4983753;28;20030;-76
2022/05/20 04:01:58;;;;;;;9.55;5.07;;;15.90;99.90;;;;;;5000923;28;20128;-76
2022/05/20 04:04:29;;;;;;;8.63;4.55;;;15.80;99.90;;;;;;5014094;28;20025;-76
2022/05/20 04:06:55;;;;;;;9.63;4.70;;;15.90;99.90;;;;;;4980833;28;20139;-77
2022/05/20 04:09:21;;;;;;;11.10;4.75;;;15.90;99.90;;;;;;5019309;28;20603;-76
2022/05/20 04:11:49;;;;;;;11.98;5.25;;;15.90;99.90;;;;;;5015150;28;20048;-73
2022/05/20 04:14:15;;;;;;;9.93;4.68;;;16.00;99.90;;;;;;4998118;28;20076;-74
2022/05/20 04:16:41;;;;;;;7.40;4.47;;;16.00;99.90;;;;;;4990879;28;20542;-76
2022/05/20 04:19:07;;;;;;;9.23;5.20;;;16.00;99.90;;;;;;5000108;28;20034;-75
2022/05/20 04:21:32;;;;;;;9.18;3.97;;;16.00;99.90;;;;;;4999611;28;20028;-75
2022/05/20 04:23:58;;;;;;;14.15;4.65;;;16.10;99.90;;;;;;5000617;28;20497;-75
2022/05/20 04:26:24;;;;;;;8.82;4.72;;;16.10;99.90;;;;;;4995640;28;20029;-75
2022/05/20 04:28:49;;;;;;;8.10;3.92;;;16.10;99.90;;;;;;5015168;28;20033;-77
2022/05/20 04:31:16;;;;;;;9.80;4.35;;;16.00;99.90;;;;;;4983185;28;20033;-74
2022/05/20 04:33:42;;;;;;;8.07;4.28;;;16.00;99.90;;;;;;4989069;28;20088;-74
2022/05/20 04:36:08;;;;;;;7.97;4.18;;;16.00;99.90;;;;;;5000019;28;20096;-75
2022/05/20 04:38:34;;;;;;;7.63;4.25;;;16.10;99.90;;;;;;4979535;28;20033;-75
2022/05/20 04:49:13;;;;;;;11.02;5.40;;;16.00;99.90;;;;;;5009873;28;20034;-76
2022/05/20 04:51:40;;;;;;;7.13;4.07;;;16.10;99.90;;;;;;4994290;28;20036;-75
2022/05/20 04:56:52;;;;;;;10.18;4.53;;;16.10;99.90;;;;;;4993332;28;20038;-76
2022/05/20 04:59:20;;;;;;;10.60;5.38;;;16.10;99.90;;;;;;4979482;28;20520;-75
2022/05/20 05:01:48;;;;;;;8.38;5.00;;;16.00;99.90;;;;;;4977084;28;20464;-76
2022/05/20 05:04:15;;;;;;;9.48;4.25;;;16.10;99.90;;;;;;4999195;28;20760;-74
2022/05/20 05:06:42;;;;;;;11.13;5.00;;;16.10;99.90;;;;;;4985209;28;20034;-72
2022/05/20 05:09:08;;;;;;;11.95;5.25;;;16.10;99.90;;;;;;5007091;28;20454;-74
2022/05/20 05:11:39;;;;;;;9.07;4.68;;;16.20;99.90;;;;;;4989720;28;20030;-76
2022/05/20 05:14:07;;;;;;;10.38;5.18;;;16.10;99.90;;;;;;5012779;28;20346;-77
2022/05/20 05:16:34;;;;;;;9.43;4.85;;;16.20;99.90;;;;;;5013016;28;20192;-75
2022/05/20 05:19:01;;;;;;;8.95;4.53;;;16.30;99.90;;;;;;4999326;28;20034;-76
2022/05/20 05:21:27;;;;;;;10.20;4.65;;;16.20;99.90;;;;;;4997784;28;20092;-76
2022/05/20 05:23:54;;;;;;;8.18;3.95;;;16.30;99.90;;;;;;4990587;28;20018;-75
2022/05/20 05:26:24;;;;;;;12.18;5.10;;;16.30;99.90;;;;;;4992398;28;20030;-75
2022/05/20 05:28:50;;;;;;;8.27;4.65;;;16.20;99.90;;;;;;4998332;28;20033;-77
2022/05/20 05:31:17;;;;;;;10.52;4.60;;;16.20;99.90;;;;;;4999021;28;20088;-78
2022/05/20 05:33:43;;;;;;;9.52;3.90;;;16.40;99.90;;;;;;4989694;28;20037;-75
2022/05/20 05:36:09;;;;;;;8.15;4.90;;;16.50;99.90;;;;;;5000555;28;21511;-78
2022/05/20 05:38:34;;;;;;;7.63;3.85;;;16.60;99.90;;;;;;4998666;28;20046;-76
2022/05/20 05:41:00;;;;;;;12.68;4.68;;;16.60;99.90;;;;;;4990965;28;20030;-76
2022/05/20 05:43:26;;;;;;;8.73;4.05;;;16.70;99.90;;;;;;4995485;28;20030;-76
2022/05/20 05:45:52;;;;;;;10.10;4.20;;;16.60;99.90;;;;;;4998414;28;20091;-75
2022/05/20 05:48:18;;;;;;;10.02;4.65;;;16.40;99.90;;;;;;4992773;28;20750;-74
2022/05/20 05:50:44;;;;;;;6.85;3.28;;;16.30;99.90;;;;;;4977948;28;20031;-75
2022/05/20 05:53:16;;;;;;;7.40;3.47;;;16.30;99.90;;;;;;5013277;28;20409;-73
2022/05/20 05:55:48;;;;;;;6.13;3.20;;;16.30;99.90;;;;;;5014714;28;20021;-75
2022/05/20 05:58:15;;;;;;;5.57;2.80;;;16.40;99.90;;;;;;5011502;28;20410;-76
2022/05/20 06:00:42;;;;;;;6.57;2.95;;;16.50;99.90;;;;;;5011447;28;20029;-77
2022/05/20 06:03:08;;;;;;;7.65;2.65;;;16.60;99.90;;;;;;5017872;28;20116;-77
2022/05/20 06:05:35;;;;;;;10.85;3.05;;;16.70;99.90;;;;;;5018394;28;20028;-77
2022/05/20 06:08:00;;;;;;;8.45;2.80;;;16.80;99.90;;;;;;5002751;28;20053;-78
2022/05/20 06:12:55;;;;;;;6.50;2.28;;;17.00;99.90;;;;;;5001632;28;20049;-76
2022/05/20 06:15:22;;;;;;;7.93;2.85;;;17.00;99.90;;;;;;4972415;28;20117;-76
2022/05/20 06:17:49;;;;;;;5.45;2.03;;;17.00;99.90;;;;;;5006854;28;20091;-77
2022/05/20 06:20:15;;;;;;;7.15;2.33;;;17.10;99.90;;;;;;4989605;28;20395;-76
2022/05/20 06:22:41;;;;;;;5.80;2.10;;;17.20;99.90;;;;;;5018347;28;20116;-75
2022/05/20 06:25:09;;;;;;;5.43;2.13;;;17.20;99.90;;;;;;5001797;28;20022;-76
2022/05/20 06:27:35;;;;;;;5.53;2.05;;;17.20;99.90;;;;;;5003743;28;20108;-76
2022/05/20 06:30:04;;;;;;;7.28;2.00;;;17.20;99.90;;;;;;5023380;28;20104;-75
2022/05/20 06:32:29;;;;;;;4.45;1.83;;;17.30;99.90;;;;;;5003665;28;20033;-76
2022/05/20 06:40:24;;;;;;;7.53;2.20;;;17.20;99.90;;;;;;5021374;28;20128;-76
2022/05/20 06:42:50;;;;;;;6.20;1.85;;;17.20;99.90;;;;;;4986482;28;20404;-76
2022/05/20 06:45:16;;;;;;;6.90;2.22;;;17.20;99.90;;;;;;5003990;28;20071;-76
2022/05/20 06:47:42;;;;;;;6.75;2.38;;;17.20;99.90;;;;;;5000925;28;20464;-76
2022/05/20 06:50:10;;;;;;;5.75;2.15;;;17.20;99.90;;;;;;5021666;28;20052;-76
2022/05/20 06:52:36;;;;;;;5.15;1.88;;;17.10;99.90;;;;;;5021386;28;20520;-76
2022/05/20 06:55:03;;;;;;;4.90;1.70;;;17.10;99.90;;;;;;5019304;28;20048;-76
2022/05/20 06:57:28;;;;;;;5.90;2.13;;;17.00;99.90;;;;;;5010925;28;20462;-77
2022/05/20 06:59:54;;;;;;;7.20;1.92;;;17.10;99.90;;;;;;5003488;28;20061;-76
2022/05/20 07:02:21;;;;;;;7.30;2.00;;;17.20;99.90;;;;;;5020993;28;20493;-77
2022/05/20 07:04:47;;;;;;;5.18;1.70;;;17.20;99.90;;;;;;5004306;28;20028;-77
2022/05/20 07:07:13;;;;;;;5.28;1.50;;;17.10;99.90;;;;;;5021150;28;20429;-76
2022/05/20 07:09:39;;;;;;;6.03;2.45;;;17.10;99.90;;;;;;5020303;28;20034;-76
2022/05/20 07:12:05;;;;;;;5.45;1.67;;;17.10;99.90;;;;;;5011175;28;20045;-77
2022/05/20 07:14:31;;;;;;;6.50;1.92;;;17.10;99.90;;;;;;5028091;28;20036;-77
2022/05/20 07:16:56;;;;;;;7.72;2.10;;;17.10;99.90;;;;;;5023859;28;20108;-77
2022/05/20 07:19:22;;;;;;;4.40;1.88;;;17.20;99.90;;;;;;5019902;28;20051;-77
2022/05/20 07:21:48;;;;;;;7.85;2.35;;;17.20;99.90;;;;;;5029875;28;20026;-77
2022/05/20 07:24:14;;;;;;;7.00;2.28;;;17.30;99.90;;;;;;5011587;28;20026;-77
2022/05/20 07:26:40;;;;;;;5.93;1.65;;;17.30;99.90;;;;;;5021735;28;20049;-77
2022/05/20 07:29:08;;;;;;;6.50;2.38;;;17.30;99.90;;;;;;5019076;28;20045;-77
2022/05/20 07:31:35;;;;;;;5.03;1.98;;;17.30;99.90;;;;;;5020511;28;20025;-77
2022/05/20 07:34:01;;;;;;;4.90;2.22;;;17.30;99.90;;;;;;5019237;28;20040;-77
2022/05/20 07:36:27;;;;;;;4.35;1.75;;;17.40;99.90;;;;;;5017261;28;20120;-76
2022/05/20 07:38:53;;;;;;;5.65;2.17;;;17.40;99.90;;;;;;5019497;28;20034;-76
2022/05/20 07:41:19;;;;;;;4.78;1.63;;;17.40;99.90;;;;;;5026363;28;20065;-76
2022/05/20 07:43:45;;;;;;;4.05;1.80;;;17.40;99.90;;;;;;5021322;28;20037;-75
2022/05/20 07:46:11;;;;;;;4.50;1.70;;;17.50;99.90;;;;;;5018294;28;20022;-77
2022/05/20 07:48:36;;;;;;;6.65;1.50;;;17.40;99.90;;;;;;5022704;28;20056;-76
2022/05/20 07:51:07;;;;;;;4.68;1.83;;;17.40;99.90;;;;;;5022100;28;20021;-77
2022/05/20 07:53:39;;;;;;;5.07;2.17;;;17.50;99.90;;;;;;5037614;28;20049;-77
2022/05/20 07:56:10;;;;;;;6.10;2.08;;;17.40;99.90;;;;;;5019509;28;20040;-77
2022/05/20 07:58:43;;;;;;;7.57;2.03;;;17.30;99.90;;;;;;5018781;28;20022;-77
2022/05/20 08:01:09;;;;;;;9.90;2.03;;;17.40;99.90;;;;;;5001835;28;20095;-77
2022/05/20 08:06:21;;;;;;;5.03;1.77;;;17.90;99.90;;;;;;5023450;28;20398;-77
2022/05/20 08:08:47;;;;;;;7.55;2.13;;;18.00;99.90;;;;;;5024994;28;20018;-76
2022/05/20 08:11:13;;;;;;;5.57;1.70;;;17.90;99.90;;;;;;5025060;28;20045;-76
2022/05/20 08:13:39;;;;;;;6.25;1.85;;;17.90;99.90;;;;;;5024103;28;20113;-76
2022/05/20 08:16:05;;;;;;;7.38;2.17;;;18.00;99.90;;;;;;4992485;28;20037;-76
2022/05/20 08:18:31;;;;;;;7.43;1.80;;;18.00;99.90;;;;;;5006689;28;20055;-75
2022/05/20 08:20:58;;;;;;;7.95;1.80;;;18.10;99.90;;;;;;5005264;28;20029;-76
2022/05/20 08:23:25;;;;;;;6.95;1.98;;;18.40;99.90;;;;;;5006991;28;20060;-76
2022/05/20 08:25:51;;;;;;;7.57;1.98;;;18.50;99.90;;;;;;5009629;28;20328;-76
2022/05/20 08:28:18;;;;;;;3.78;1.60;;;18.50;99.90;;;;;;5026281;28;20548;-76
2022/05/20 08:30:44;;;;;;;3.80;1.52;;;18.40;99.90;;;;;;5026018;28;20457;-76
2022/05/20 08:33:10;;;;;;;4.72;1.75;;;18.20;99.90;;;;;;5005968;28;20033;-76
2022/05/20 08:35:36;;;;;;;4.43;2.05;;;18.20;99.90;;;;;;5013891;28;20026;-76
2022/05/20 08:38:04;;;;;;;10.45;2.15;;;18.10;99.90;;;;;;5022066;28;20092;-76
2022/05/20 08:40:40;;;;;;;4.35;1.85;;;17.90;99.90;;;;;;5005693;28;20528;-76
2022/05/20 08:43:06;;;;;;;6.00;2.38;;;17.70;99.90;;;;;;5025971;28;20030;-76
2022/05/20 08:45:32;;;;;;;3.33;1.60;;;17.80;99.90;;;;;;5024790;28;20022;-75
2022/05/20 08:47:58;;;;;;;6.57;1.90;;;18.00;99.90;;;;;;5021916;28;20050;-75
2022/05/20 08:50:36;;;;;;;4.05;1.80;;;18.30;99.90;;;;;;5024376;28;20475;-76
2022/05/20 08:53:02;;;;;;;6.90;1.75;;;18.30;99.90;;;;;;5005535;28;20032;-75
2022/05/20 08:55:27;;;;;;;4.47;1.67;;;18.30;99.90;;;;;;5005805;28;20033;-77
2022/05/20 08:58:01;;;;;;;8.70;2.13;;;18.20;99.90;;;;;;5008230;28;20032;-76
2022/05/20 09:00:29;;;;;;;8.13;2.00;;;18.20;99.90;;;;;;5024491;28;20413;-75
2022/05/20 09:02:55;;;;;;;4.03;1.90;;;18.20;99.90;;;;;;5010241;28;20466;-76
2022/05/20 09:05:33;;;;;;;7.97;2.53;;;18.10;99.90;;;;;;5024977;28;20474;-77
2022/05/20 09:08:07;;;;;;;8.43;2.03;;;18.00;99.90;;;;;;5026286;28;20047;-77
2022/05/20 09:10:35;;;;;;;5.38;2.00;;;18.20;99.90;;;;;;4990647;28;20116;-77
2022/05/20 09:16:18;;;;;;;7.35;1.95;;;18.30;99.90;;;;;;5020888;28;20172;-76
2022/05/20 09:18:47;;;;;;;6.60;2.07;;;18.40;99.90;;;;;;5004772;28;20030;-77
2022/05/20 09:21:33;;;;;;;6.30;1.92;;;18.40;99.90;;;;;;5005790;28;20285;-77
2022/05/20 09:24:03;;;;;;;5.78;2.00;;;18.50;99.90;;;;;;4988734;28;20037;-78
2022/05/20 09:26:38;;;;;;;6.07;2.03;;;18.50;99.90;;;;;;5005959;28;20022;-76
2022/05/20 09:29:13;;;;;;;7.60;2.10;;;18.60;99.90;;;;;;5024560;28;20033;-77
2022/05/20 09:31:51;;;;;;;5.85;2.00;;;18.70;99.90;;;;;;5023178;28;20112;-76
2022/05/20 09:34:26;;;;;;;5.70;2.00;;;18.70;99.90;;;;;;4997304;28;20480;-76
2022/05/20 09:37:10;;;;;;;7.32;2.55;;;18.60;99.90;;;;;;5006177;28;20018;-76
2022/05/20 09:39:40;;;;;;;6.75;1.70;;;18.70;99.90;;;;;;5005666;28;20088;-76
2022/05/20 09:42:17;;;;;;;4.60;1.45;;;18.70;99.90;;;;;;5023243;28;20088;-76
2022/05/20 09:44:46;;;;;;;7.20;1.88;;;18.70;99.90;;;;;;5003784;28;20075;-76
2022/05/20 09:47:30;;;;;;;5.80;1.70;;;18.80;99.90;;;;;;5011920;28;20031;-76
2022/05/20 09:50:15;;;;;;;6.25;1.40;;;18.80;99.90;;;;;;5023799;28;20029;-76
2022/05/20 09:52:51;;;;;;;6.30;1.98;;;18.70;99.90;;;;;;5023439;28;20034;-76
2022/05/20 09:55:43;;;;;;;6.03;1.77;;;18.50;99.70;;;;;;5006916;28;20021;-75
2022/05/20 09:58:17;;;;;;;2.42;1.40;;;18.70;99.90;;;;;;5025676;28;20504;-76
2022/05/20 10:01:07;;;;;;;4.38;1.35;;;18.90;99.90;;;;;;5006715;28;20030;-76
2022/05/20 10:03:38;;;;;;;4.18;1.73;;;18.90;99.90;;;;;;5004947;28;20501;-76
2022/05/20 10:06:23;;;;;;;;;;;18.40;98.20;;;;;;5003539;28;20024;-76
2022/05/20 10:09:10;;;;;;;5.40;1.67;;;18.50;99.90;;;;;;5022168;28;19936;-76
2022/05/20 10:12:17;;;;;;;3.67;1.85;;;18.70;99.60;;;;;;4998858;28;20026;-76
2022/05/20 10:15:17;;;;;;;6.25;1.95;;;18.80;98.30;;;;;;4925257;29;20032;-76
2022/05/20 10:18:05;;;;;;;4.83;1.87;;;18.90;99.40;;;;;;4914426;29;20030;-77
2022/05/20 10:20:43;;;;;;;6.47;2.20;;;18.80;97.80;;;;;;4930650;29;20988;-76
2022/05/20 10:23:20;;;;;;;4.63;1.50;;;19.00;99.70;;;;;;4910632;29;20039;-76
2022/05/20 10:26:12;;;;;;;5.28;2.10;;;19.10;99.20;;;;;;4930967;29;20040;-77
2022/05/20 10:34:54;;;;;;;4.75;2.00;;;19.30;99.00;;;;;;4928659;29;20020;-76
2022/05/20 10:37:51;;;;;;;4.55;1.73;;;19.30;99.30;;;;;;4930360;29;20036;-76
2022/05/20 10:40:33;;;;;;;3.95;1.70;;;19.50;99.90;;;;;;4909814;29;20042;-75
2022/05/20 10:43:14;;;;;;;4.70;1.90;;;19.70;99.30;;;;;;4922087;29;20073;-76
2022/05/20 10:48:51;;;;;;;4.05;1.77;;;19.90;98.70;;;;;;5021882;28;20045;-77
2022/05/20 10:51:45;;;;;;;4.78;2.00;;;20.10;98.60;;;;;;5019909;28;20652;-77
2022/05/20 10:54:29;;;;;;;4.03;2.05;;;20.20;98.70;;;;;;5019570;28;20101;-78
2022/05/20 10:56:58;;;;;;;4.82;1.88;;;20.40;98.10;;;;;;5020910;28;20022;-77
2022/05/20 10:59:57;;;;;;;7.13;3.55;;;20.40;97.90;;;;;;5005856;28;20042;-77
2022/05/20 11:02:44;;;;;;;6.00;1.90;;;20.60;97.80;;;;;;5022746;28;20099;-77
2022/05/20 11:05:48;;;;;;;9.55;2.28;;;20.90;96.10;;;;;;5022241;28;20495;-76
2022/05/20 11:08:56;;;;;;;11.10;1.88;;;20.90;91.90;;;;;;5014199;28;20099;-77
2022/05/20 11:11:29;;;;;;;4.30;2.17;;;21.30;93.40;;;;;;5010532;28;20049;-76
2022/05/20 11:14:16;;;;;;;9.70;2.78;;;21.90;90.90;;;;;;5027486;28;20034;-76
2022/05/20 11:16:42;;;;;;;4.55;1.88;;;21.70;89.30;;;;;;5020160;28;20065;-77
2022/05/20 11:19:35;;;;;;;6.20;2.55;;;23.40;86.60;;;;;;5019896;28;20057;-76
2022/05/20 11:22:16;;;;;;;5.10;2.67;;;24.50;74.70;;;;;;5041807;28;20512;-77
2022/05/20 11:25:01;;;;;;;3.55;2.03;;;25.40;62.60;;;;;;5021548;28;20028;-76
2022/05/20 11:27:33;;;;;;;3.70;1.88;;;25.60;67.50;;;;;;5020246;28;20030;-77
2022/05/20 11:30:21;;;;;;;4.18;1.63;;;26.80;63.70;;;;;;5027258;28;20045;-75
2022/05/20 11:33:05;;;;;;;2.60;1.67;;;28.10;63.70;;;;;;5003970;28;20539;-76
2022/05/20 11:35:59;;;;;;;3.45;1.30;;;28.40;56.90;;;;;;5035624;28;20068;-75
2022/05/20 11:38:27;;;;;;;3.25;1.20;;;29.50;56.50;;;;;;4984832;28;20045;-75
2022/05/20 11:41:22;;;;;;;3.75;1.73;;;30.20;56.20;;;;;;5021125;28;20034;-75
2022/05/20 11:44:10;;;;;;;3.45;1.58;;;29.90;51.70;;;;;;5019545;28;20036;-75
2022/05/20 11:46:50;;;;;;;3.13;1.50;;;31.00;52.10;;;;;;5020840;28;20041;-74
2022/05/20 11:49:30;;;;;;;3.38;1.58;;;31.90;50.70;;;;;;5021759;28;20056;-73
2022/05/20 11:52:40;;;;;;;3.75;1.70;;;31.50;43.80;;;;;;5021145;28;20433;-74
2022/05/20 11:55:27;;;;;;;4.70;2.03;;;30.10;46.30;;;;;;4931307;28;20039;-78
2022/05/20 11:58:04;;;;;;;3.10;1.58;;;30.30;50.60;;;;;;4969767;28;20031;-79
2022/05/20 12:00:32;;;;;;;2.95;1.40;;;30.10;51.10;;;;;;4962100;28;20054;-78
2022/05/20 12:03:10;;;;;;;3.25;1.48;;;29.70;51.80;;;;;;4959477;28;20101;-77
2022/05/20 12:05:40;;;;;;;3.88;1.90;;;29.30;52.30;;;;;;4961721;28;20566;-76
2022/05/20 12:08:07;;;;;;;5.13;1.88;;;28.40;53.10;;;;;;4962508;28;20050;-76
2022/05/20 12:10:45;;;;;;;3.85;2.00;;;27.90;54.50;;;;;;4961369;28;20349;-75
2022/05/20 12:13:21;;;;;;;6.22;2.58;;;27.30;55.10;;;;;;5013196;23;20053;-77
2022/05/20 12:16:08;;;;;;;6.10;2.80;;;26.00;54.60;;;;;;4988871;28;20026;-73
2022/05/20 12:24:42;;;;;;;5.38;2.35;;;25.00;55.20;;;;;;5015531;28;20103;-77
2022/05/20 12:27:40;;;;;;;19.15;10.23;;;24.90;55.90;;;;;;5019788;28;20036;-79
2022/05/20 12:30:15;;;;;;;114.55;57.67;;;24.90;59.80;;;;;;5001867;28;20372;-75
2022/05/20 12:32:49;;;;;;;53.90;29.00;;;25.00;62.30;;;;;;5019834;28;20030;-75
2022/05/20 12:35:33;;;;;;;14.68;8.65;;;25.20;60.10;;;;;;4996872;28;20042;-76
2022/05/20 12:38:19;;;;;;;3.90;2.63;;;25.10;60.90;;;;;;5019161;28;20087;-73
2022/05/20 12:40:50;;;;;;;4.15;2.90;;;25.10;58.50;;;;;;4996276;28;20034;-73
2022/05/20 12:43:15;;;;;;;7.50;2.50;;;24.10;57.40;;;;;;5018376;28;20025;-75
2022/05/20 12:45:55;;;;;;;5.22;2.20;;;23.90;60.00;;;;;;4997630;28;20037;-77
2022/05/20 12:48:28;;;;;;;4.20;2.33;;;24.50;61.60;;;;;;4970967;28;20084;-76
2022/05/20 12:51:05;;;;;;;2.92;1.67;;;25.20;60.60;;;;;;5018421;28;20026;-76
2022/05/20 12:53:33;;;;;;;3.85;2.20;;;25.80;59.60;;;;;;4985211;28;20120;-76
2022/05/20 12:56:01;;;;;;;3.55;1.80;;;26.10;57.80;;;;;;4999609;28;20032;-76
2022/05/20 12:58:30;;;;;;;7.20;3.22;;;26.10;58.60;;;;;;5007590;28;20116;-75
2022/05/20 13:00:59;;;;;;;7.22;2.38;;;25.50;55.50;;;;;;5017789;28;20113;-75
2022/05/20 13:03:38;;;;;;;3.13;1.60;;;25.50;58.10;;;;;;5011886;28;20025;-76
2022/05/20 13:06:10;;;;;;;3.13;1.40;;;25.50;58.90;;;;;;4985596;28;20052;-75
2022/05/20 13:08:49;;;;;;;4.57;1.98;;;25.80;60.70;;;;;;4996553;28;20026;-73
2022/05/20 13:11:18;;;;;;;3.90;1.88;;;26.20;60.00;;;;;;5010064;28;20084;-74
2022/05/20 13:13:49;;;;;;;4.50;2.03;;;26.80;58.30;;;;;;4997916;28;20084;-75
2022/05/20 13:16:15;;;;;;;4.88;2.33;;;27.50;57.30;;;;;;5016206;28;21002;-77
2022/05/20 13:19:00;;;;;;;6.32;2.53;;;28.60;54.00;;;;;;5020400;28;20037;-77
2022/05/20 13:21:27;;;;;;;3.67;1.90;;;30.00;50.40;;;;;;5023603;28;20507;-78
2022/05/20 13:23:55;;;;;;;5.80;2.17;;;31.20;50.10;;;;;;5014300;28;20037;-77
2022/05/20 13:26:28;;;;;;;3.42;1.65;;;32.50;47.70;;;;;;5016509;28;20060;-76
2022/05/20 13:29:21;;;;;;;6.50;2.28;;;33.70;45.80;;;;;;5003924;28;20029;-77
2022/05/20 13:31:47;;;;;;;5.35;2.10;;;34.40;41.70;;;;;;5016284;28;20041;-79
2022/05/20 13:34:13;;;;;;;6.38;2.28;;;35.20;42.10;;;;;;5023007;28;20037;-77
2022/05/20 13:36:46;;;;;;;3.83;1.80;;;34.40;37.50;;;;;;5013926;28;20096;-73
2022/05/20 13:39:20;;;;;;;4.20;1.92;;;34.10;41.10;;;;;;5009618;28;20034;-74
2022/05/20 13:41:49;;;;;;;3.75;2.03;;;35.10;40.70;;;;;;5018504;28;20022;-73
2022/05/20 13:44:15;;;;;;;4.13;1.95;;;35.50;38.60;;;;;;5012559;28;20076;-74
2022/05/20 13:49:35;;;;;;;3.33;1.98;;;37.00;39.20;;;;;;5018689;28;20033;-75
2022/05/20 13:52:13;;;;;;;4.05;2.17;;;36.80;38.00;;;;;;5014294;28;20537;-75
2022/05/20 13:54:56;;;;;;;6.93;2.63;;;37.20;38.70;;;;;;5001844;28;20053;-76
2022/05/20 13:57:33;;;;;;;4.13;2.63;;;37.00;35.30;;;;;;5014341;28;20052;-75